sensor_id;sensor_type;location;lat;lon;timestamp;P1;durP1;ratioP1;P2;durP2;ratioP2
44981;SDS011;30716;41.740;-70.400;2023-01-15T00:01:46;3.78;;;1.25;;
44981;SDS011;30716;41.740;-70.400;2023-01-15T00:04:12;5.15;;;1.73;;
44981;SDS011;30716;41.740;-70.400;2023-01-15T00:06:39;3.97;;;1.55;;
44981;SDS011;30716;41.740;-70.400;2023-01-15T00:09:07;4.88;;;1.58;;
44981;SDS011;30716;41.740;-70.400;2023-01-15T00:11:37;3.35;;;1.75;;
44981;SDS011;30716;41.740;-70.400;2023-01-15T00:14:03;3.63;;;1.55;;
44981;SDS011;30716;41.740;-70.400;2023-01-15T00:16:29;4.25;;;1.33;;
44981;SDS011;30716;41.740;-70.400;2023-01-15T00:18:57;3.65;;;1.60;;
44981;SDS011;30716;41.740;-70.400;2023-01-15T00:21:25;5.40;;;1.45;;
44981;SDS011;30716;41.740;-70.400;2023-01-15T00:23:52;5.43;;;1.60;;
44981;SDS011;30716;41.740;-70.400;2023-01-15T00:26:38;3.83;;;1.40;;
44981;SDS011;30716;41.740;-70.400;2023-01-15T00:29:24;3.40;;;1.30;;
44981;SDS011;30716;41.740;-70.400;2023-01-15T00:31:52;5.05;;;1.63;;
44981;SDS011;30716;41.740;-70.400;2023-01-15T00:34:19;3.95;;;1.70;;
44981;SDS011;30716;41.740;-70.400;2023-01-15T00:36:45;3.85;;;1.42;;
44981;SDS011;30716;41.740;-70.400;2023-01-15T00:39:12;5.45;;;1.95;;
44981;SDS011;30716;41.740;-70.400;2023-01-15T00:41:38;5.15;;;1.92;;
44981;SDS011;30716;41.740;-70.400;2023-01-15T00:44:04;4.68;;;1.50;;
44981;SDS011;30716;41.740;-70.400;2023-01-15T00:46:30;5.32;;;1.60;;
44981;SDS011;30716;41.740;-70.400;2023-01-15T00:48:57;4.28;;;1.50;;
44981;SDS011;30716;41.740;-70.400;2023-01-15T00:51:23;3.55;;;1.27;;
44981;SDS011;30716;41.740;-70.400;2023-01-15T00:53:49;7.65;;;1.95;;
44981;SDS011;30716;41.740;-70.400;2023-01-15T00:56:15;3.47;;;1.30;;
44981;SDS011;30716;41.740;-70.400;2023-01-15T00:58:42;6.63;;;1.50;;
44981;SDS011;30716;41.740;-70.400;2023-01-15T01:01:08;5.20;;;1.50;;
44981;SDS011;30716;41.740;-70.400;2023-01-15T01:03:34;3.92;;;1.42;;
44981;SDS011;30716;41.740;-70.400;2023-01-15T01:06:01;5.45;;;1.67;;
44981;SDS011;30716;41.740;-70.400;2023-01-15T01:08:28;5.00;;;1.23;;
44981;SDS011;30716;41.740;-70.400;2023-01-15T01:11:04;3.88;;;1.50;;
44981;SDS011;30716;41.740;-70.400;2023-01-15T01:13:33;3.90;;;1.05;;
44981;SDS011;30716;41.740;-70.400;2023-01-15T01:15:59;4.82;;;1.60;;
44981;SDS011;30716;41.740;-70.400;2023-01-15T01:18:26;3.75;;;1.23;;
44981;SDS011;30716;41.740;-70.400;2023-01-15T01:20:52;3.70;;;1.23;;
44981;SDS011;30716;41.740;-70.400;2023-01-15T01:23:19;3.55;;;1.55;;
44981;SDS011;30716;41.740;-70.400;2023-01-15T01:25:47;4.47;;;2.03;;
44981;SDS011;30716;41.740;-70.400;2023-01-15T01:28:13;2.83;;;1.30;;
44981;SDS011;30716;41.740;-70.400;2023-01-15T01:30:40;5.00;;;1.60;;
44981;SDS011;30716;41.740;-70.400;2023-01-15T01:33:06;6.18;;;1.95;;
44981;SDS011;30716;41.740;-70.400;2023-01-15T01:35:33;4.28;;;1.65;;
44981;SDS011;30716;41.740;-70.400;2023-01-15T01:38:00;4.90;;;1.75;;
44981;SDS011;30716;41.740;-70.400;2023-01-15T01:40:26;3.35;;;1.13;;
44981;SDS011;30716;41.740;-70.400;2023-01-15T01:42:52;4.97;;;1.48;;
44981;SDS011;30716;41.740;-70.400;2023-01-15T01:45:21;5.68;;;1.77;;
44981;SDS011;30716;41.740;-70.400;2023-01-15T01:47:55;3.58;;;1.90;;
44981;SDS011;30716;41.740;-70.400;2023-01-15T01:50:28;4.18;;;1.60;;
44981;SDS011;30716;41.740;-70.400;2023-01-15T01:53:02;6.32;;;1.95;;
44981;SDS011;30716;41.740;-70.400;2023-01-15T01:55:34;4.00;;;1.45;;
44981;SDS011;30716;41.740;-70.400;2023-01-15T01:58:01;3.85;;;1.48;;
44981;SDS011;30716;41.740;-70.400;2023-01-15T02:00:32;4.45;;;1.55;;
44981;SDS011;30716;41.740;-70.400;2023-01-15T02:03:01;5.47;;;1.27;;
44981;SDS011;30716;41.740;-70.400;2023-01-15T02:05:31;4.28;;;1.70;;
44981;SDS011;30716;41.740;-70.400;2023-01-15T02:08:00;4.07;;;1.63;;
44981;SDS011;30716;41.740;-70.400;2023-01-15T02:10:26;3.55;;;1.17;;
44981;SDS011;30716;41.740;-70.400;2023-01-15T02:13:02;4.15;;;1.30;;
44981;SDS011;30716;41.740;-70.400;2023-01-15T02:15:41;5.18;;;1.80;;
44981;SDS011;30716;41.740;-70.400;2023-01-15T02:18:26;5.40;;;1.95;;
44981;SDS011;30716;41.740;-70.400;2023-01-15T02:22:01;3.97;;;1.52;;
44981;SDS011;30716;41.740;-70.400;2023-01-15T02:23:57;3.70;;;1.55;;
44981;SDS011;30716;41.740;-70.400;2023-01-15T02:29:12;4.65;;;1.27;;
44981;SDS011;30716;41.740;-70.400;2023-01-15T02:31:45;4.28;;;1.52;;
44981;SDS011;30716;41.740;-70.400;2023-01-15T02:34:17;3.63;;;1.20;;
44981;SDS011;30716;41.740;-70.400;2023-01-15T02:37:02;4.07;;;1.52;;
44981;SDS011;30716;41.740;-70.400;2023-01-15T02:39:33;4.25;;;1.60;;
44981;SDS011;30716;41.740;-70.400;2023-01-15T02:42:03;3.80;;;1.35;;
44981;SDS011;30716;41.740;-70.400;2023-01-15T02:44:37;4.05;;;1.50;;
44981;SDS011;30716;41.740;-70.400;2023-01-15T02:47:06;4.90;;;1.58;;
44981;SDS011;30716;41.740;-70.400;2023-01-15T02:49:35;2.97;;;1.20;;
44981;SDS011;30716;41.740;-70.400;2023-01-15T02:52:05;2.97;;;1.08;;
44981;SDS011;30716;41.740;-70.400;2023-01-15T02:54:40;3.60;;;1.20;;
44981;SDS011;30716;41.740;-70.400;2023-01-15T02:57:11;6.32;;;1.80;;
44981;SDS011;30716;41.740;-70.400;2023-01-15T02:59:40;4.70;;;1.63;;
44981;SDS011;30716;41.740;-70.400;2023-01-15T03:05:24;4.00;;;1.40;;
44981;SDS011;30716;41.740;-70.400;2023-01-15T03:07:45;6.03;;;2.05;;
44981;SDS011;30716;41.740;-70.400;2023-01-15T03:10:16;6.07;;;1.55;;
44981;SDS011;30716;41.740;-70.400;2023-01-15T03:15:27;4.20;;;1.52;;
44981;SDS011;30716;41.740;-70.400;2023-01-15T03:18:24;4.35;;;1.52;;
44981;SDS011;30716;41.740;-70.400;2023-01-15T03:20:54;4.32;;;1.50;;
44981;SDS011;30716;41.740;-70.400;2023-01-15T03:23:24;4.78;;;1.45;;
44981;SDS011;30716;41.740;-70.400;2023-01-15T03:25:53;3.58;;;1.48;;
44981;SDS011;30716;41.740;-70.400;2023-01-15T03:28:23;5.00;;;1.38;;
44981;SDS011;30716;41.740;-70.400;2023-01-15T03:30:52;4.13;;;1.63;;
44981;SDS011;30716;41.740;-70.400;2023-01-15T03:33:18;6.65;;;2.17;;
44981;SDS011;30716;41.740;-70.400;2023-01-15T03:38:18;3.40;;;1.25;;
44981;SDS011;30716;41.740;-70.400;2023-01-15T03:40:49;3.72;;;1.40;;
44981;SDS011;30716;41.740;-70.400;2023-01-15T03:44:06;3.17;;;1.40;;
44981;SDS011;30716;41.740;-70.400;2023-01-15T03:49:45;3.75;;;1.75;;
44981;SDS011;30716;41.740;-70.400;2023-01-15T03:55:25;3.42;;;1.65;;
44981;SDS011;30716;41.740;-70.400;2023-01-15T03:58:09;2.90;;;1.20;;
44981;SDS011;30716;41.740;-70.400;2023-01-15T04:00:58;3.42;;;1.30;;
44981;SDS011;30716;41.740;-70.400;2023-01-15T04:03:27;4.20;;;1.20;;
44981;SDS011;30716;41.740;-70.400;2023-01-15T04:05:58;3.92;;;1.33;;
44981;SDS011;30716;41.740;-70.400;2023-01-15T04:08:26;4.20;;;1.63;;
44981;SDS011;30716;41.740;-70.400;2023-01-15T04:10:59;4.20;;;1.70;;
44981;SDS011;30716;41.740;-70.400;2023-01-15T04:13:26;4.82;;;1.25;;
44981;SDS011;30716;41.740;-70.400;2023-01-15T04:15:53;4.15;;;1.60;;
44981;SDS011;30716;41.740;-70.400;2023-01-15T04:18:20;5.40;;;1.60;;
44981;SDS011;30716;41.740;-70.400;2023-01-15T04:20:47;3.85;;;1.42;;
44981;SDS011;30716;41.740;-70.400;2023-01-15T04:23:13;4.05;;;1.30;;
44981;SDS011;30716;41.740;-70.400;2023-01-15T04:25:40;4.75;;;1.67;;
44981;SDS011;30716;41.740;-70.400;2023-01-15T04:28:07;3.33;;;1.48;;
44981;SDS011;30716;41.740;-70.400;2023-01-15T04:30:34;3.53;;;1.10;;
44981;SDS011;30716;41.740;-70.400;2023-01-15T04:33:01;4.07;;;1.30;;
44981;SDS011;30716;41.740;-70.400;2023-01-15T04:35:28;4.65;;;1.75;;
44981;SDS011;30716;41.740;-70.400;2023-01-15T04:37:54;4.95;;;1.70;;
44981;SDS011;30716;41.740;-70.400;2023-01-15T04:40:21;2.58;;;1.80;;
44981;SDS011;30716;41.740;-70.400;2023-01-15T04:43:07;3.47;;;1.40;;
44981;SDS011;30716;41.740;-70.400;2023-01-15T04:45:53;5.50;;;1.42;;
44981;SDS011;30716;41.740;-70.400;2023-01-15T04:48:20;5.55;;;1.80;;
44981;SDS011;30716;41.740;-70.400;2023-01-15T04:50:46;5.45;;;1.40;;
44981;SDS011;30716;41.740;-70.400;2023-01-15T04:53:12;4.43;;;2.30;;
44981;SDS011;30716;41.740;-70.400;2023-01-15T04:55:39;4.63;;;1.25;;
44981;SDS011;30716;41.740;-70.400;2023-01-15T04:58:05;2.53;;;1.05;;
44981;SDS011;30716;41.740;-70.400;2023-01-15T05:04:02;5.22;;;1.85;;
44981;SDS011;30716;41.740;-70.400;2023-01-15T05:06:28;6.00;;;2.03;;
44981;SDS011;30716;41.740;-70.400;2023-01-15T05:08:56;6.80;;;1.52;;
44981;SDS011;30716;41.740;-70.400;2023-01-15T05:11:22;4.82;;;1.45;;
44981;SDS011;30716;41.740;-70.400;2023-01-15T05:13:49;4.28;;;1.40;;
44981;SDS011;30716;41.740;-70.400;2023-01-15T05:16:16;4.38;;;1.38;;
44981;SDS011;30716;41.740;-70.400;2023-01-15T05:18:45;7.25;;;1.70;;
44981;SDS011;30716;41.740;-70.400;2023-01-15T05:21:16;3.65;;;1.27;;
44981;SDS011;30716;41.740;-70.400;2023-01-15T05:23:47;4.32;;;1.85;;
44981;SDS011;30716;41.740;-70.400;2023-01-15T05:26:15;4.65;;;2.10;;
44981;SDS011;30716;41.740;-70.400;2023-01-15T05:28:42;5.60;;;1.50;;
44981;SDS011;30716;41.740;-70.400;2023-01-15T05:31:10;2.30;;;1.30;;
44981;SDS011;30716;41.740;-70.400;2023-01-15T05:33:38;4.95;;;1.85;;
44981;SDS011;30716;41.740;-70.400;2023-01-15T05:36:06;4.15;;;1.95;;
44981;SDS011;30716;41.740;-70.400;2023-01-15T05:38:35;4.38;;;1.70;;
44981;SDS011;30716;41.740;-70.400;2023-01-15T05:41:06;3.65;;;1.50;;
44981;SDS011;30716;41.740;-70.400;2023-01-15T05:43:52;7.13;;;1.88;;
44981;SDS011;30716;41.740;-70.400;2023-01-15T05:46:19;3.85;;;1.85;;
44981;SDS011;30716;41.740;-70.400;2023-01-15T05:48:45;4.40;;;1.35;;
44981;SDS011;30716;41.740;-70.400;2023-01-15T05:51:11;5.65;;;1.90;;
44981;SDS011;30716;41.740;-70.400;2023-01-15T05:53:38;4.05;;;1.42;;
44981;SDS011;30716;41.740;-70.400;2023-01-15T05:56:04;4.32;;;1.90;;
44981;SDS011;30716;41.740;-70.400;2023-01-15T05:58:31;3.72;;;1.65;;
44981;SDS011;30716;41.740;-70.400;2023-01-15T06:00:57;3.88;;;1.50;;
44981;SDS011;30716;41.740;-70.400;2023-01-15T06:03:24;2.72;;;1.42;;
44981;SDS011;30716;41.740;-70.400;2023-01-15T06:05:54;4.45;;;1.50;;
44981;SDS011;30716;41.740;-70.400;2023-01-15T06:08:21;4.32;;;2.05;;
44981;SDS011;30716;41.740;-70.400;2023-01-15T06:10:48;4.82;;;2.22;;
44981;SDS011;30716;41.740;-70.400;2023-01-15T06:13:15;4.30;;;1.80;;
44981;SDS011;30716;41.740;-70.400;2023-01-15T06:15:42;6.57;;;1.70;;
44981;SDS011;30716;41.740;-70.400;2023-01-15T06:18:09;4.80;;;1.83;;
44981;SDS011;30716;41.740;-70.400;2023-01-15T06:20:39;4.57;;;1.77;;
44981;SDS011;30716;41.740;-70.400;2023-01-15T06:23:06;3.67;;;1.27;;
44981;SDS011;30716;41.740;-70.400;2023-01-15T06:25:36;5.32;;;1.60;;
44981;SDS011;30716;41.740;-70.400;2023-01-15T06:28:03;4.88;;;2.03;;
44981;SDS011;30716;41.740;-70.400;2023-01-15T06:30:30;5.38;;;1.85;;
44981;SDS011;30716;41.740;-70.400;2023-01-15T06:32:57;5.13;;;1.55;;
44981;SDS011;30716;41.740;-70.400;2023-01-15T06:35:23;5.65;;;1.40;;
44981;SDS011;30716;41.740;-70.400;2023-01-15T06:37:49;3.70;;;1.27;;
44981;SDS011;30716;41.740;-70.400;2023-01-15T06:40:16;5.85;;;1.65;;
44981;SDS011;30716;41.740;-70.400;2023-01-15T06:42:43;6.15;;;2.30;;
44981;SDS011;30716;41.740;-70.400;2023-01-15T06:45:28;7.30;;;2.22;;
44981;SDS011;30716;41.740;-70.400;2023-01-15T06:48:24;6.38;;;2.05;;
44981;SDS011;30716;41.740;-70.400;2023-01-15T06:50:51;5.95;;;1.55;;
44981;SDS011;30716;41.740;-70.400;2023-01-15T06:53:18;5.78;;;1.83;;
44981;SDS011;30716;41.740;-70.400;2023-01-15T06:55:45;4.72;;;1.50;;
44981;SDS011;30716;41.740;-70.400;2023-01-15T06:58:11;5.93;;;1.70;;
44981;SDS011;30716;41.740;-70.400;2023-01-15T07:00:38;4.03;;;1.40;;
44981;SDS011;30716;41.740;-70.400;2023-01-15T07:03:07;5.63;;;1.95;;
44981;SDS011;30716;41.740;-70.400;2023-01-15T07:05:33;6.15;;;1.77;;
44981;SDS011;30716;41.740;-70.400;2023-01-15T07:08:03;4.93;;;1.92;;
44981;SDS011;30716;41.740;-70.400;2023-01-15T07:10:29;4.95;;;1.75;;
44981;SDS011;30716;41.740;-70.400;2023-01-15T07:12:57;5.00;;;1.40;;
44981;SDS011;30716;41.740;-70.400;2023-01-15T07:15:24;3.63;;;1.40;;
44981;SDS011;30716;41.740;-70.400;2023-01-15T07:17:53;5.25;;;1.65;;
44981;SDS011;30716;41.740;-70.400;2023-01-15T07:20:20;7.07;;;2.13;;
44981;SDS011;30716;41.740;-70.400;2023-01-15T07:22:49;5.90;;;2.45;;
44981;SDS011;30716;41.740;-70.400;2023-01-15T07:25:16;4.75;;;2.22;;
44981;SDS011;30716;41.740;-70.400;2023-01-15T07:27:42;4.00;;;1.45;;
44981;SDS011;30716;41.740;-70.400;2023-01-15T07:30:11;5.38;;;2.13;;
44981;SDS011;30716;41.740;-70.400;2023-01-15T07:32:37;5.07;;;1.60;;
44981;SDS011;30716;41.740;-70.400;2023-01-15T07:35:03;3.30;;;1.60;;
44981;SDS011;30716;41.740;-70.400;2023-01-15T07:37:30;4.55;;;1.73;;
44981;SDS011;30716;41.740;-70.400;2023-01-15T07:39:56;5.15;;;1.45;;
44981;SDS011;30716;41.740;-70.400;2023-01-15T07:42:22;5.28;;;2.03;;
44981;SDS011;30716;41.740;-70.400;2023-01-15T07:45:07;8.43;;;3.13;;
44981;SDS011;30716;41.740;-70.400;2023-01-15T07:47:52;4.50;;;2.28;;
44981;SDS011;30716;41.740;-70.400;2023-01-15T07:50:37;6.35;;;2.03;;
44981;SDS011;30716;41.740;-70.400;2023-01-15T07:53:04;3.55;;;1.55;;
44981;SDS011;30716;41.740;-70.400;2023-01-15T07:55:30;4.38;;;1.52;;
44981;SDS011;30716;41.740;-70.400;2023-01-15T07:57:56;3.85;;;1.40;;
44981;SDS011;30716;41.740;-70.400;2023-01-15T08:00:23;5.60;;;2.20;;
44981;SDS011;30716;41.740;-70.400;2023-01-15T08:02:55;5.47;;;2.08;;
44981;SDS011;30716;41.740;-70.400;2023-01-15T08:05:22;5.72;;;1.58;;
44981;SDS011;30716;41.740;-70.400;2023-01-15T08:07:48;5.45;;;1.90;;
44981;SDS011;30716;41.740;-70.400;2023-01-15T08:10:14;6.43;;;1.98;;
44981;SDS011;30716;41.740;-70.400;2023-01-15T08:12:40;3.80;;;1.63;;
44981;SDS011;30716;41.740;-70.400;2023-01-15T08:15:25;7.28;;;2.22;;
44981;SDS011;30716;41.740;-70.400;2023-01-15T08:17:54;6.50;;;2.42;;
44981;SDS011;30716;41.740;-70.400;2023-01-15T08:20:22;6.10;;;2.10;;
44981;SDS011;30716;41.740;-70.400;2023-01-15T08:22:50;6.05;;;2.35;;
44981;SDS011;30716;41.740;-70.400;2023-01-15T08:25:18;6.25;;;1.98;;
44981;SDS011;30716;41.740;-70.400;2023-01-15T08:27:46;6.63;;;2.72;;
44981;SDS011;30716;41.740;-70.400;2023-01-15T08:30:14;3.60;;;1.58;;
44981;SDS011;30716;41.740;-70.400;2023-01-15T08:32:42;5.07;;;2.00;;
44981;SDS011;30716;41.740;-70.400;2023-01-15T08:35:09;7.20;;;2.08;;
44981;SDS011;30716;41.740;-70.400;2023-01-15T08:37:37;4.20;;;1.38;;
44981;SDS011;30716;41.740;-70.400;2023-01-15T08:40:04;4.15;;;1.75;;
44981;SDS011;30716;41.740;-70.400;2023-01-15T08:42:31;6.53;;;2.13;;
44981;SDS011;30716;41.740;-70.400;2023-01-15T08:44:58;5.53;;;1.83;;
44981;SDS011;30716;41.740;-70.400;2023-01-15T08:47:24;6.13;;;2.17;;
44981;SDS011;30716;41.740;-70.400;2023-01-15T08:49:50;5.68;;;1.80;;
44981;SDS011;30716;41.740;-70.400;2023-01-15T08:52:16;3.85;;;1.75;;
44981;SDS011;30716;41.740;-70.400;2023-01-15T08:54:42;4.75;;;1.80;;
44981;SDS011;30716;41.740;-70.400;2023-01-15T08:57:09;6.13;;;2.50;;
44981;SDS011;30716;41.740;-70.400;2023-01-15T08:59:36;6.10;;;1.80;;
44981;SDS011;30716;41.740;-70.400;2023-01-15T09:02:03;4.63;;;1.70;;
44981;SDS011;30716;41.740;-70.400;2023-01-15T09:04:29;4.97;;;2.15;;
44981;SDS011;30716;41.740;-70.400;2023-01-15T09:06:55;4.47;;;1.92;;
44981;SDS011;30716;41.740;-70.400;2023-01-15T09:09:21;5.82;;;2.28;;
44981;SDS011;30716;41.740;-70.400;2023-01-15T09:11:47;5.43;;;1.73;;
44981;SDS011;30716;41.740;-70.400;2023-01-15T09:14:14;4.72;;;1.52;;
44981;SDS011;30716;41.740;-70.400;2023-01-15T09:16:40;5.70;;;2.15;;
44981;SDS011;30716;41.740;-70.400;2023-01-15T09:19:08;5.57;;;2.20;;
44981;SDS011;30716;41.740;-70.400;2023-01-15T09:21:36;6.75;;;2.38;;
44981;SDS011;30716;41.740;-70.400;2023-01-15T09:24:02;6.15;;;2.08;;
44981;SDS011;30716;41.740;-70.400;2023-01-15T09:26:30;6.68;;;2.55;;
44981;SDS011;30716;41.740;-70.400;2023-01-15T09:28:58;6.22;;;2.05;;
44981;SDS011;30716;41.740;-70.400;2023-01-15T09:31:25;6.13;;;2.45;;
44981;SDS011;30716;41.740;-70.400;2023-01-15T09:33:52;6.03;;;2.50;;
44981;SDS011;30716;41.740;-70.400;2023-01-15T09:36:31;5.80;;;2.88;;
44981;SDS011;30716;41.740;-70.400;2023-01-15T09:38:59;6.18;;;2.25;;
44981;SDS011;30716;41.740;-70.400;2023-01-15T09:41:33;6.90;;;2.17;;
44981;SDS011;30716;41.740;-70.400;2023-01-15T09:47:38;5.57;;;1.77;;
44981;SDS011;30716;41.740;-70.400;2023-01-15T09:50:15;5.60;;;2.40;;
44981;SDS011;30716;41.740;-70.400;2023-01-15T09:57:48;6.45;;;2.00;;
44981;SDS011;30716;41.740;-70.400;2023-01-15T10:00:18;3.70;;;1.67;;
44981;SDS011;30716;41.740;-70.400;2023-01-15T10:05:41;5.65;;;2.10;;
44981;SDS011;30716;41.740;-70.400;2023-01-15T10:08:55;7.88;;;1.92;;
44981;SDS011;30716;41.740;-70.400;2023-01-15T10:13:46;5.13;;;2.22;;
44981;SDS011;30716;41.740;-70.400;2023-01-15T10:16:21;6.88;;;2.10;;
44981;SDS011;30716;41.740;-70.400;2023-01-15T10:18:50;6.25;;;2.30;;
44981;SDS011;30716;41.740;-70.400;2023-01-15T10:26:36;5.68;;;2.03;;
44981;SDS011;30716;41.740;-70.400;2023-01-15T10:29:18;7.60;;;2.35;;
44981;SDS011;30716;41.740;-70.400;2023-01-15T10:40:14;7.85;;;2.08;;
44981;SDS011;30716;41.740;-70.400;2023-01-15T10:45:35;7.22;;;2.00;;
44981;SDS011;30716;41.740;-70.400;2023-01-15T10:48:11;3.83;;;1.60;;
44981;SDS011;30716;41.740;-70.400;2023-01-15T10:50:38;5.13;;;1.88;;
44981;SDS011;30716;41.740;-70.400;2023-01-15T10:55:41;5.78;;;2.00;;
44981;SDS011;30716;41.740;-70.400;2023-01-15T11:00:49;5.80;;;2.20;;
44981;SDS011;30716;41.740;-70.400;2023-01-15T11:03:50;6.30;;;2.03;;
44981;SDS011;30716;41.740;-70.400;2023-01-15T11:06:18;3.92;;;1.70;;
44981;SDS011;30716;41.740;-70.400;2023-01-15T11:08:50;7.78;;;2.60;;
44981;SDS011;30716;41.740;-70.400;2023-01-15T11:13:54;5.70;;;2.25;;
44981;SDS011;30716;41.740;-70.400;2023-01-15T11:16:39;5.15;;;1.98;;
44981;SDS011;30716;41.740;-70.400;2023-01-15T11:19:27;5.32;;;1.80;;
44981;SDS011;30716;41.740;-70.400;2023-01-15T11:22:05;7.85;;;2.67;;
44981;SDS011;30716;41.740;-70.400;2023-01-15T11:27:23;6.47;;;2.65;;
44981;SDS011;30716;41.740;-70.400;2023-01-15T11:29:52;6.63;;;2.22;;
44981;SDS011;30716;41.740;-70.400;2023-01-15T11:32:31;5.93;;;2.58;;
44981;SDS011;30716;41.740;-70.400;2023-01-15T11:35:00;8.15;;;2.35;;
44981;SDS011;30716;41.740;-70.400;2023-01-15T11:37:44;5.07;;;2.08;;
44981;SDS011;30716;41.740;-70.400;2023-01-15T11:40:16;5.85;;;2.30;;
44981;SDS011;30716;41.740;-70.400;2023-01-15T11:42:48;7.07;;;3.20;;
44981;SDS011;30716;41.740;-70.400;2023-01-15T11:45:34;7.72;;;2.58;;
44981;SDS011;30716;41.740;-70.400;2023-01-15T11:48:33;7.20;;;2.03;;
44981;SDS011;30716;41.740;-70.400;2023-01-15T11:51:26;5.88;;;2.50;;
44981;SDS011;30716;41.740;-70.400;2023-01-15T11:53:53;6.63;;;2.25;;
44981;SDS011;30716;41.740;-70.400;2023-01-15T11:56:25;4.82;;;1.98;;
44981;SDS011;30716;41.740;-70.400;2023-01-15T11:58:57;6.78;;;2.30;;
44981;SDS011;30716;41.740;-70.400;2023-01-15T12:05:05;7.57;;;2.40;;
44981;SDS011;30716;41.740;-70.400;2023-01-15T12:07:39;6.18;;;2.25;;
44981;SDS011;30716;41.740;-70.400;2023-01-15T12:10:19;5.30;;;2.28;;
44981;SDS011;30716;41.740;-70.400;2023-01-15T12:13:09;7.10;;;2.47;;
44981;SDS011;30716;41.740;-70.400;2023-01-15T12:21:31;5.45;;;2.17;;
44981;SDS011;30716;41.740;-70.400;2023-01-15T12:29:39;8.52;;;2.75;;
44981;SDS011;30716;41.740;-70.400;2023-01-15T12:32:33;7.43;;;2.85;;
44981;SDS011;30716;41.740;-70.400;2023-01-15T12:35:10;7.85;;;2.78;;
44981;SDS011;30716;41.740;-70.400;2023-01-15T12:37:58;6.88;;;2.53;;
44981;SDS011;30716;41.740;-70.400;2023-01-15T12:40:32;7.07;;;3.70;;
44981;SDS011;30716;41.740;-70.400;2023-01-15T12:43:14;7.30;;;2.65;;
44981;SDS011;30716;41.740;-70.400;2023-01-15T12:46:09;6.30;;;2.10;;
44981;SDS011;30716;41.740;-70.400;2023-01-15T12:51:47;7.82;;;3.38;;
44981;SDS011;30716;41.740;-70.400;2023-01-15T12:54:53;7.47;;;2.33;;
44981;SDS011;30716;41.740;-70.400;2023-01-15T12:57:46;8.35;;;2.72;;
44981;SDS011;30716;41.740;-70.400;2023-01-15T13:00:26;5.63;;;2.45;;
44981;SDS011;30716;41.740;-70.400;2023-01-15T13:06:15;6.00;;;2.30;;
44981;SDS011;30716;41.740;-70.400;2023-01-15T13:08:48;6.72;;;2.55;;
44981;SDS011;30716;41.740;-70.400;2023-01-15T13:11:21;7.55;;;3.05;;
44981;SDS011;30716;41.740;-70.400;2023-01-15T13:13:47;7.03;;;2.50;;
44981;SDS011;30716;41.740;-70.400;2023-01-15T13:16:26;7.55;;;2.78;;
44981;SDS011;30716;41.740;-70.400;2023-01-15T13:19:06;6.32;;;2.67;;
44981;SDS011;30716;41.740;-70.400;2023-01-15T13:21:40;7.72;;;2.60;;
44981;SDS011;30716;41.740;-70.400;2023-01-15T13:29:38;7.75;;;2.72;;
44981;SDS011;30716;41.740;-70.400;2023-01-15T13:32:33;6.50;;;2.35;;
44981;SDS011;30716;41.740;-70.400;2023-01-15T13:35:13;7.15;;;2.97;;
44981;SDS011;30716;41.740;-70.400;2023-01-15T13:37:53;7.53;;;2.65;;
44981;SDS011;30716;41.740;-70.400;2023-01-15T13:43:00;7.32;;;3.08;;
44981;SDS011;30716;41.740;-70.400;2023-01-15T13:45:38;5.15;;;2.30;;
44981;SDS011;30716;41.740;-70.400;2023-01-15T13:48:21;6.63;;;2.80;;
44981;SDS011;30716;41.740;-70.400;2023-01-15T13:50:52;6.10;;;2.63;;
44981;SDS011;30716;41.740;-70.400;2023-01-15T13:53:32;10.85;;;2.95;;
44981;SDS011;30716;41.740;-70.400;2023-01-15T13:56:10;5.50;;;2.50;;
44981;SDS011;30716;41.740;-70.400;2023-01-15T14:06:51;6.85;;;2.75;;
44981;SDS011;30716;41.740;-70.400;2023-01-15T14:30:51;6.25;;;2.47;;
44981;SDS011;30716;41.740;-70.400;2023-01-15T14:35:46;8.15;;;2.10;;
44981;SDS011;30716;41.740;-70.400;2023-01-15T14:38:20;9.55;;;3.97;;
44981;SDS011;30716;41.740;-70.400;2023-01-15T14:40:54;6.82;;;2.85;;
44981;SDS011;30716;41.740;-70.400;2023-01-15T14:43:31;6.25;;;3.45;;
44981;SDS011;30716;41.740;-70.400;2023-01-15T14:48:59;7.32;;;2.90;;
44981;SDS011;30716;41.740;-70.400;2023-01-15T14:51:30;8.98;;;2.78;;
44981;SDS011;30716;41.740;-70.400;2023-01-15T14:54:12;7.47;;;2.63;;
44981;SDS011;30716;41.740;-70.400;2023-01-15T14:56:45;7.18;;;2.47;;
44981;SDS011;30716;41.740;-70.400;2023-01-15T14:59:25;6.50;;;2.30;;
44981;SDS011;30716;41.740;-70.400;2023-01-15T15:04:31;6.63;;;2.63;;
44981;SDS011;30716;41.740;-70.400;2023-01-15T15:07:02;4.65;;;2.47;;
44981;SDS011;30716;41.740;-70.400;2023-01-15T15:14:59;6.78;;;2.13;;
44981;SDS011;30716;41.740;-70.400;2023-01-15T15:18:00;6.60;;;2.30;;
44981;SDS011;30716;41.740;-70.400;2023-01-15T15:20:42;7.30;;;3.03;;
44981;SDS011;30716;41.740;-70.400;2023-01-15T15:25:55;8.05;;;2.75;;
44981;SDS011;30716;41.740;-70.400;2023-01-15T15:28:22;7.55;;;2.85;;
44981;SDS011;30716;41.740;-70.400;2023-01-15T15:30:48;8.98;;;2.88;;
44981;SDS011;30716;41.740;-70.400;2023-01-15T15:33:24;7.75;;;2.95;;
44981;SDS011;30716;41.740;-70.400;2023-01-15T15:35:56;7.25;;;2.78;;
44981;SDS011;30716;41.740;-70.400;2023-01-15T15:38:24;8.25;;;2.45;;
44981;SDS011;30716;41.740;-70.400;2023-01-15T15:40:52;8.93;;;3.20;;
44981;SDS011;30716;41.740;-70.400;2023-01-15T15:43:23;8.05;;;2.88;;
44981;SDS011;30716;41.740;-70.400;2023-01-15T15:46:37;6.75;;;2.47;;
44981;SDS011;30716;41.740;-70.400;2023-01-15T15:49:21;7.53;;;2.63;;
44981;SDS011;30716;41.740;-70.400;2023-01-15T15:51:48;5.50;;;2.35;;
44981;SDS011;30716;41.740;-70.400;2023-01-15T16:01:50;7.30;;;2.50;;
44981;SDS011;30716;41.740;-70.400;2023-01-15T16:04:50;6.28;;;2.15;;
44981;SDS011;30716;41.740;-70.400;2023-01-15T16:07:24;6.72;;;2.42;;
44981;SDS011;30716;41.740;-70.400;2023-01-15T16:09:53;6.53;;;2.07;;
44981;SDS011;30716;41.740;-70.400;2023-01-15T16:12:22;6.57;;;2.80;;
44981;SDS011;30716;41.740;-70.400;2023-01-15T16:14:51;8.63;;;2.22;;
44981;SDS011;30716;41.740;-70.400;2023-01-15T16:17:18;7.78;;;2.78;;
44981;SDS011;30716;41.740;-70.400;2023-01-15T16:19:44;7.13;;;2.35;;
44981;SDS011;30716;41.740;-70.400;2023-01-15T16:22:13;8.48;;;3.03;;
44981;SDS011;30716;41.740;-70.400;2023-01-15T16:24:51;10.30;;;3.00;;
44981;SDS011;30716;41.740;-70.400;2023-01-15T16:27:18;7.13;;;2.33;;
44981;SDS011;30716;41.740;-70.400;2023-01-15T16:29:47;6.53;;;2.38;;
44981;SDS011;30716;41.740;-70.400;2023-01-15T16:32:19;10.90;;;3.72;;
44981;SDS011;30716;41.740;-70.400;2023-01-15T16:35:06;8.95;;;2.75;;
44981;SDS011;30716;41.740;-70.400;2023-01-15T16:37:41;8.98;;;2.90;;
44981;SDS011;30716;41.740;-70.400;2023-01-15T16:40:15;7.43;;;2.65;;
44981;SDS011;30716;41.740;-70.400;2023-01-15T16:42:57;6.78;;;2.58;;
44981;SDS011;30716;41.740;-70.400;2023-01-15T16:45:30;7.70;;;2.85;;
44981;SDS011;30716;41.740;-70.400;2023-01-15T16:50:33;10.23;;;3.25;;
44981;SDS011;30716;41.740;-70.400;2023-01-15T16:53:01;10.27;;;3.38;;
44981;SDS011;30716;41.740;-70.400;2023-01-15T16:55:35;8.27;;;2.67;;
44981;SDS011;30716;41.740;-70.400;2023-01-15T17:00:43;10.90;;;2.72;;
44981;SDS011;30716;41.740;-70.400;2023-01-15T17:03:11;11.93;;;3.00;;
44981;SDS011;30716;41.740;-70.400;2023-01-15T17:05:39;10.82;;;3.28;;
44981;SDS011;30716;41.740;-70.400;2023-01-15T17:08:16;8.73;;;3.25;;
44981;SDS011;30716;41.740;-70.400;2023-01-15T17:10:52;8.55;;;3.58;;
44981;SDS011;30716;41.740;-70.400;2023-01-15T17:18:49;12.70;;;4.35;;
44981;SDS011;30716;41.740;-70.400;2023-01-15T17:21:16;11.32;;;2.95;;
44981;SDS011;30716;41.740;-70.400;2023-01-15T17:23:47;12.27;;;3.28;;